Bhakkar Weather



Bhakkar's Current Weather

Temprature 30.222o few clouds

few clouds

Rain: 0 %

Min Temprature30.222o
Max Temprature30.222o
Humidity27
Wind Speed8 m/h
Sun Rise06:20:21
Sun Set17:41:17
Current Time: 18-Oct-2019 16:36:36
Lat/Lon: 31.63, 71.07




Bhakkar's Geo Location



Bhakkar's Weather Forecast

Time Overall Temp Min Temp Max Temp Humidity Wind Speed Rain
18-Oct-2019 (Fri)
17:00:00 few clouds 28.350 28.350 30.222 27 8 m/h 0 %
20:00:00 overcast clouds 27.570 27.570 28.973 31 5.89 m/h 0 %
23:00:00 broken clouds 24.000 24.000 24.929 47 3.68 m/h 0 %
19-Oct-2019 (Sat)
02:00:00 clear sky 23.030 23.030 23.498 52 3.45 m/h 0 %
05:00:00 clear sky 22.628 22.628 22.628 52 3.08 m/h 0 %
08:00:00 clear sky 25.082 25.082 25.082 36 3.48 m/h 0 %
11:00:00 clear sky 30.450 30.450 30.450 26 1.81 m/h 0 %
14:00:00 clear sky 32.673 32.673 32.673 21 1.71 m/h 0 %
17:00:00 clear sky 31.994 31.994 31.994 21 2.47 m/h 0 %
20:00:00 clear sky 26.741 26.741 26.741 30 0.91 m/h 0 %
23:00:00 clear sky 24.944 24.944 24.944 33 0.59 m/h 0 %
20-Oct-2019 (Sun)
02:00:00 clear sky 24.137 24.137 24.137 34 1.23 m/h 0 %
05:00:00 few clouds 23.108 23.108 23.108 37 1.31 m/h 0 %
08:00:00 overcast clouds 26.694 26.694 26.694 30 1.64 m/h 0 %
11:00:00 overcast clouds 31.300 31.300 31.300 22 1.44 m/h 0 %
14:00:00 overcast clouds 33.333 33.333 33.333 18 1.47 m/h 0 %
17:00:00 broken clouds 32.191 32.191 32.191 18 1.02 m/h 0 %
20:00:00 clear sky 27.533 27.533 27.533 25 2.64 m/h 0 %
23:00:00 clear sky 25.549 25.549 25.549 29 1.61 m/h 0 %
21-Oct-2019 (Mon)
02:00:00 clear sky 24.506 24.506 24.506 30 2.76 m/h 0 %
05:00:00 clear sky 21.947 21.947 21.947 35 1.19 m/h 0 %
08:00:00 clear sky 26.322 26.322 26.322 27 1.74 m/h 0 %
11:00:00 clear sky 31.375 31.375 31.375 19 1.52 m/h 0 %
14:00:00 broken clouds 33.518 33.518 33.518 15 2.13 m/h 0 %
17:00:00 broken clouds 32.034 32.034 32.034 17 3.07 m/h 0 %
20:00:00 overcast clouds 28.143 28.143 28.143 20 2.6 m/h 0 %
23:00:00 scattered clouds 25.454 25.454 25.454 24 1.72 m/h 0 %
22-Oct-2019 (Tue)
02:00:00 clear sky 24.972 24.972 24.972 25 3.23 m/h 0 %
05:00:00 clear sky 21.386 21.386 21.386 33 0.63 m/h 0 %
08:00:00 clear sky 26.471 26.471 26.471 24 1.98 m/h 0 %
11:00:00 clear sky 31.575 31.575 31.575 17 1.57 m/h 0 %
14:00:00 clear sky 33.859 33.859 33.859 13 1.67 m/h 0 %
17:00:00 few clouds 32.229 32.229 32.229 14 2.97 m/h 0 %
20:00:00 scattered clouds 27.950 27.950 27.950 18 2.43 m/h 0 %
23:00:00 broken clouds 26.032 26.032 26.032 20 1.59 m/h 0 %
23-Oct-2019 (Wed)
02:00:00 overcast clouds 24.215 24.215 24.215 22 1.49 m/h 0 %
05:00:00 broken clouds 22.638 22.638 22.638 24 2 m/h 0 %
08:00:00 clear sky 26.253 26.253 26.253 19 2.25 m/h 0 %
11:00:00 clear sky 31.624 31.624 31.624 14 2.45 m/h 0 %
14:00:00 clear sky 33.691 33.691 33.691 12 2.83 m/h 0 %


Bhakkar's Tourist Spots

Historical Places in Bhakkar

Famous Cities (61)